sensor_id;sensor_type;location;lat;lon;timestamp;temperature;humidity
71188;DHT22;58893;53.130;8.158;2022-12-11T00:02:02;4.20;68.20
71188;DHT22;58893;53.130;8.158;2022-12-11T00:04:29;4.20;68.20
71188;DHT22;58893;53.130;8.158;2022-12-11T00:06:55;4.20;68.30
71188;DHT22;58893;53.130;8.158;2022-12-11T00:09:20;4.20;68.30
71188;DHT22;58893;53.130;8.158;2022-12-11T00:11:46;4.20;68.40
71188;DHT22;58893;53.130;8.158;2022-12-11T00:14:13;4.20;68.40
71188;DHT22;58893;53.130;8.158;2022-12-11T00:16:39;4.20;68.10
71188;DHT22;58893;53.130;8.158;2022-12-11T00:19:04;4.20;68.10
71188;DHT22;58893;53.130;8.158;2022-12-11T00:21:30;4.20;68.00
71188;DHT22;58893;53.130;8.158;2022-12-11T00:23:56;4.20;68.10
71188;DHT22;58893;53.130;8.158;2022-12-11T00:26:21;4.20;68.30
71188;DHT22;58893;53.130;8.158;2022-12-11T00:28:51;4.30;68.40
71188;DHT22;58893;53.130;8.158;2022-12-11T00:31:19;4.30;68.40
71188;DHT22;58893;53.130;8.158;2022-12-11T00:33:45;4.30;68.30
71188;DHT22;58893;53.130;8.158;2022-12-11T00:36:19;4.30;68.30
71188;DHT22;58893;53.130;8.158;2022-12-11T00:38:44;4.30;68.20
71188;DHT22;58893;53.130;8.158;2022-12-11T00:41:11;4.30;68.20
71188;DHT22;58893;53.130;8.158;2022-12-11T00:43:37;4.30;68.20
71188;DHT22;58893;53.130;8.158;2022-12-11T00:46:03;4.30;68.40
71188;DHT22;58893;53.130;8.158;2022-12-11T00:48:29;4.30;68.50
71188;DHT22;58893;53.130;8.158;2022-12-11T00:50:54;4.30;68.70
71188;DHT22;58893;53.130;8.158;2022-12-11T00:53:20;4.30;68.80
71188;DHT22;58893;53.130;8.158;2022-12-11T00:55:46;4.30;68.90
71188;DHT22;58893;53.130;8.158;2022-12-11T00:58:12;4.30;68.90
71188;DHT22;58893;53.130;8.158;2022-12-11T01:00:38;4.30;68.80
71188;DHT22;58893;53.130;8.158;2022-12-11T01:03:05;4.30;68.70
71188;DHT22;58893;53.130;8.158;2022-12-11T01:05:32;4.30;68.70
71188;DHT22;58893;53.130;8.158;2022-12-11T01:07:57;4.30;68.80
71188;DHT22;58893;53.130;8.158;2022-12-11T01:10:23;4.40;69.00
71188;DHT22;58893;53.130;8.158;2022-12-11T01:12:54;4.40;68.90
71188;DHT22;58893;53.130;8.158;2022-12-11T01:15:21;4.40;68.90
71188;DHT22;58893;53.130;8.158;2022-12-11T01:17:49;4.40;69.00
71188;DHT22;58893;53.130;8.158;2022-12-11T01:20:15;4.40;69.00
71188;DHT22;58893;53.130;8.158;2022-12-11T01:22:41;4.40;69.10
71188;DHT22;58893;53.130;8.158;2022-12-11T01:25:07;4.40;69.20
71188;DHT22;58893;53.130;8.158;2022-12-11T01:27:37;4.40;69.20
71188;DHT22;58893;53.130;8.158;2022-12-11T01:30:04;4.40;69.30
71188;DHT22;58893;53.130;8.158;2022-12-11T01:32:31;4.40;69.40
71188;DHT22;58893;53.130;8.158;2022-12-11T01:34:57;4.40;69.50
71188;DHT22;58893;53.130;8.158;2022-12-11T01:37:22;4.40;69.60
71188;DHT22;58893;53.130;8.158;2022-12-11T01:39:48;4.40;69.70
71188;DHT22;58893;53.130;8.158;2022-12-11T01:42:16;4.40;69.80
71188;DHT22;58893;53.130;8.158;2022-12-11T01:47:08;4.40;70.00
71188;DHT22;58893;53.130;8.158;2022-12-11T01:49:35;4.40;70.10
71188;DHT22;58893;53.130;8.158;2022-12-11T01:52:08;4.40;70.20
71188;DHT22;58893;53.130;8.158;2022-12-11T01:54:35;4.40;70.30
71188;DHT22;58893;53.130;8.158;2022-12-11T01:57:04;4.40;70.40
71188;DHT22;58893;53.130;8.158;2022-12-11T01:59:33;4.40;70.40
71188;DHT22;58893;53.130;8.158;2022-12-11T02:02:07;4.40;70.50
71188;DHT22;58893;53.130;8.158;2022-12-11T02:04:35;4.40;70.60
71188;DHT22;58893;53.130;8.158;2022-12-11T02:07:02;4.40;70.60
71188;DHT22;58893;53.130;8.158;2022-12-11T02:09:31;4.40;70.60
71188;DHT22;58893;53.130;8.158;2022-12-11T02:20:33;4.30;70.70
71188;DHT22;58893;53.130;8.158;2022-12-11T02:28:47;4.30;71.10
71188;DHT22;58893;53.130;8.158;2022-12-11T02:31:23;4.30;71.20
71188;DHT22;58893;53.130;8.158;2022-12-11T02:34:00;4.30;71.30
71188;DHT22;58893;53.130;8.158;2022-12-11T02:36:30;4.30;71.50
71188;DHT22;58893;53.130;8.158;2022-12-11T02:38:59;4.30;71.50
71188;DHT22;58893;53.130;8.158;2022-12-11T02:41:27;4.30;71.70
71188;DHT22;58893;53.130;8.158;2022-12-11T02:43:54;4.30;72.50
71188;DHT22;58893;53.130;8.158;2022-12-11T02:46:21;4.30;72.00
71188;DHT22;58893;53.130;8.158;2022-12-11T02:48:49;4.30;72.20
71188;DHT22;58893;53.130;8.158;2022-12-11T02:51:17;4.30;72.40
71188;DHT22;58893;53.130;8.158;2022-12-11T02:53:46;4.30;72.50
71188;DHT22;58893;53.130;8.158;2022-12-11T02:56:16;4.30;72.60
71188;DHT22;58893;53.130;8.158;2022-12-11T02:58:54;4.30;72.80
71188;DHT22;58893;53.130;8.158;2022-12-11T03:01:21;4.30;72.90
71188;DHT22;58893;53.130;8.158;2022-12-11T03:03:46;4.30;73.10
71188;DHT22;58893;53.130;8.158;2022-12-11T03:06:16;4.30;73.20
71188;DHT22;58893;53.130;8.158;2022-12-11T03:08:44;4.30;73.40
71188;DHT22;58893;53.130;8.158;2022-12-11T03:11:11;4.30;73.50
71188;DHT22;58893;53.130;8.158;2022-12-11T03:13:39;4.30;73.60
71188;DHT22;58893;53.130;8.158;2022-12-11T03:21:37;4.30;73.70
71188;DHT22;58893;53.130;8.158;2022-12-11T03:26:27;4.20;73.80
71188;DHT22;58893;53.130;8.158;2022-12-11T03:29:05;4.20;73.90
71188;DHT22;58893;53.130;8.158;2022-12-11T03:31:47;4.20;74.00
71188;DHT22;58893;53.130;8.158;2022-12-11T03:34:24;4.20;74.10
71188;DHT22;58893;53.130;8.158;2022-12-11T03:36:53;4.20;74.10
71188;DHT22;58893;53.130;8.158;2022-12-11T03:39:26;4.20;74.20
71188;DHT22;58893;53.130;8.158;2022-12-11T03:41:54;4.20;74.20
71188;DHT22;58893;53.130;8.158;2022-12-11T03:44:21;4.20;74.20
71188;DHT22;58893;53.130;8.158;2022-12-11T03:46:48;4.20;74.30
71188;DHT22;58893;53.130;8.158;2022-12-11T03:49:19;4.20;74.40
71188;DHT22;58893;53.130;8.158;2022-12-11T03:51:47;4.20;74.50
71188;DHT22;58893;53.130;8.158;2022-12-11T03:54:15;4.20;74.60
71188;DHT22;58893;53.130;8.158;2022-12-11T03:56:44;4.20;74.60
71188;DHT22;58893;53.130;8.158;2022-12-11T03:59:10;4.20;74.70
71188;DHT22;58893;53.130;8.158;2022-12-11T04:01:36;4.20;74.50
71188;DHT22;58893;53.130;8.158;2022-12-11T04:04:01;4.10;74.40
71188;DHT22;58893;53.130;8.158;2022-12-11T04:06:27;4.10;74.30
71188;DHT22;58893;53.130;8.158;2022-12-11T04:08:53;4.20;74.40
71188;DHT22;58893;53.130;8.158;2022-12-11T04:11:18;4.10;74.20
71188;DHT22;58893;53.130;8.158;2022-12-11T04:14:08;4.10;74.20
71188;DHT22;58893;53.130;8.158;2022-12-11T04:16:52;4.10;74.20
71188;DHT22;58893;53.130;8.158;2022-12-11T04:19:21;4.10;74.30
71188;DHT22;58893;53.130;8.158;2022-12-11T04:22:05;4.10;74.30
71188;DHT22;58893;53.130;8.158;2022-12-11T04:24:49;4.10;74.30
71188;DHT22;58893;53.130;8.158;2022-12-11T04:27:16;4.10;74.30
71188;DHT22;58893;53.130;8.158;2022-12-11T04:30:14;4.10;74.30
71188;DHT22;58893;53.130;8.158;2022-12-11T04:32:40;4.10;74.30
71188;DHT22;58893;53.130;8.158;2022-12-11T04:35:07;4.00;74.10
71188;DHT22;58893;53.130;8.158;2022-12-11T04:37:33;4.00;74.20
71188;DHT22;58893;53.130;8.158;2022-12-11T04:39:59;4.00;74.90
71188;DHT22;58893;53.130;8.158;2022-12-11T04:42:25;4.00;74.40
71188;DHT22;58893;53.130;8.158;2022-12-11T04:44:50;4.00;74.40
71188;DHT22;58893;53.130;8.158;2022-12-11T04:47:16;4.00;74.50
71188;DHT22;58893;53.130;8.158;2022-12-11T04:49:42;4.00;74.60
71188;DHT22;58893;53.130;8.158;2022-12-11T04:52:08;4.00;74.50
71188;DHT22;58893;53.130;8.158;2022-12-11T04:54:33;4.00;74.50
71188;DHT22;58893;53.130;8.158;2022-12-11T04:56:59;4.00;74.40
71188;DHT22;58893;53.130;8.158;2022-12-11T04:59:25;4.00;74.40
71188;DHT22;58893;53.130;8.158;2022-12-11T05:01:50;4.00;74.30
71188;DHT22;58893;53.130;8.158;2022-12-11T05:04:16;4.00;74.40
71188;DHT22;58893;53.130;8.158;2022-12-11T05:06:42;4.00;74.40
71188;DHT22;58893;53.130;8.158;2022-12-11T05:09:11;4.00;74.50
71188;DHT22;58893;53.130;8.158;2022-12-11T05:11:37;3.90;74.50
71188;DHT22;58893;53.130;8.158;2022-12-11T05:14:02;3.90;74.50
71188;DHT22;58893;53.130;8.158;2022-12-11T05:16:28;3.90;74.40
71188;DHT22;58893;53.130;8.158;2022-12-11T05:18:53;3.90;74.30
71188;DHT22;58893;53.130;8.158;2022-12-11T05:21:19;3.90;74.30
71188;DHT22;58893;53.130;8.158;2022-12-11T05:23:45;3.90;74.30
71188;DHT22;58893;53.130;8.158;2022-12-11T05:26:14;3.90;74.20
71188;DHT22;58893;53.130;8.158;2022-12-11T05:28:40;3.90;74.20
71188;DHT22;58893;53.130;8.158;2022-12-11T05:31:11;3.90;74.20
71188;DHT22;58893;53.130;8.158;2022-12-11T05:33:37;3.90;74.30
71188;DHT22;58893;53.130;8.158;2022-12-11T05:36:03;3.90;74.30
71188;DHT22;58893;53.130;8.158;2022-12-11T05:38:29;3.90;74.30
71188;DHT22;58893;53.130;8.158;2022-12-11T05:41:06;3.90;74.90
71188;DHT22;58893;53.130;8.158;2022-12-11T05:43:34;3.90;74.20
71188;DHT22;58893;53.130;8.158;2022-12-11T05:46:05;3.90;74.10
71188;DHT22;58893;53.130;8.158;2022-12-11T05:48:31;3.90;74.10
71188;DHT22;58893;53.130;8.158;2022-12-11T05:51:00;3.90;74.10
71188;DHT22;58893;53.130;8.158;2022-12-11T05:53:27;3.90;74.10
71188;DHT22;58893;53.130;8.158;2022-12-11T05:55:53;3.90;74.10
71188;DHT22;58893;53.130;8.158;2022-12-11T05:58:19;3.90;74.10
71188;DHT22;58893;53.130;8.158;2022-12-11T06:00:46;3.90;74.70
71188;DHT22;58893;53.130;8.158;2022-12-11T06:03:12;3.90;74.10
71188;DHT22;58893;53.130;8.158;2022-12-11T06:05:39;3.90;74.10
71188;DHT22;58893;53.130;8.158;2022-12-11T06:08:06;3.90;74.10
71188;DHT22;58893;53.130;8.158;2022-12-11T06:10:32;3.90;74.10
71188;DHT22;58893;53.130;8.158;2022-12-11T06:12:57;3.90;74.00
71188;DHT22;58893;53.130;8.158;2022-12-11T06:15:23;3.90;74.00
71188;DHT22;58893;53.130;8.158;2022-12-11T06:17:49;3.90;73.90
71188;DHT22;58893;53.130;8.158;2022-12-11T06:20:14;3.80;73.80
71188;DHT22;58893;53.130;8.158;2022-12-11T06:22:40;3.80;73.90
71188;DHT22;58893;53.130;8.158;2022-12-11T06:25:06;3.90;74.00
71188;DHT22;58893;53.130;8.158;2022-12-11T06:27:32;3.90;74.00
71188;DHT22;58893;53.130;8.158;2022-12-11T06:29:57;3.90;74.10
71188;DHT22;58893;53.130;8.158;2022-12-11T06:32:23;3.80;74.00
71188;DHT22;58893;53.130;8.158;2022-12-11T06:34:49;3.80;74.00
71188;DHT22;58893;53.130;8.158;2022-12-11T06:37:14;3.80;74.00
71188;DHT22;58893;53.130;8.158;2022-12-11T06:39:40;3.80;74.10
71188;DHT22;58893;53.130;8.158;2022-12-11T06:42:05;3.80;73.90
71188;DHT22;58893;53.130;8.158;2022-12-11T06:44:31;3.80;73.90
71188;DHT22;58893;53.130;8.158;2022-12-11T06:46:57;3.90;74.50
71188;DHT22;58893;53.130;8.158;2022-12-11T06:49:22;3.90;73.80
71188;DHT22;58893;53.130;8.158;2022-12-11T06:51:48;3.90;73.70
71188;DHT22;58893;53.130;8.158;2022-12-11T06:54:14;3.80;73.60
71188;DHT22;58893;53.130;8.158;2022-12-11T06:56:39;3.80;73.50
71188;DHT22;58893;53.130;8.158;2022-12-11T06:59:05;3.80;73.50
71188;DHT22;58893;53.130;8.158;2022-12-11T07:01:31;3.80;73.50
71188;DHT22;58893;53.130;8.158;2022-12-11T07:03:58;3.80;73.50
71188;DHT22;58893;53.130;8.158;2022-12-11T07:06:25;3.80;73.50
71188;DHT22;58893;53.130;8.158;2022-12-11T07:08:51;3.80;73.50
71188;DHT22;58893;53.130;8.158;2022-12-11T07:11:18;3.80;73.60
71188;DHT22;58893;53.130;8.158;2022-12-11T07:13:44;3.80;73.60
71188;DHT22;58893;53.130;8.158;2022-12-11T07:16:11;3.80;74.20
71188;DHT22;58893;53.130;8.158;2022-12-11T07:18:39;3.80;73.60
71188;DHT22;58893;53.130;8.158;2022-12-11T07:21:06;3.80;73.70
71188;DHT22;58893;53.130;8.158;2022-12-11T07:23:33;3.80;73.70
71188;DHT22;58893;53.130;8.158;2022-12-11T07:26:04;3.80;73.70
71188;DHT22;58893;53.130;8.158;2022-12-11T07:28:30;3.80;73.70
71188;DHT22;58893;53.130;8.158;2022-12-11T07:30:55;3.80;73.80
71188;DHT22;58893;53.130;8.158;2022-12-11T07:33:21;3.80;73.80
71188;DHT22;58893;53.130;8.158;2022-12-11T07:35:47;3.80;73.80
71188;DHT22;58893;53.130;8.158;2022-12-11T07:38:12;3.70;73.80
71188;DHT22;58893;53.130;8.158;2022-12-11T07:40:38;3.80;73.90
71188;DHT22;58893;53.130;8.158;2022-12-11T07:43:03;3.80;73.90
71188;DHT22;58893;53.130;8.158;2022-12-11T07:45:29;3.80;74.10
71188;DHT22;58893;53.130;8.158;2022-12-11T07:47:55;3.90;74.10
71188;DHT22;58893;53.130;8.158;2022-12-11T07:50:20;4.00;73.80
71188;DHT22;58893;53.130;8.158;2022-12-11T07:52:46;3.90;73.60
71188;DHT22;58893;53.130;8.158;2022-12-11T07:55:12;4.00;73.60
71188;DHT22;58893;53.130;8.158;2022-12-11T07:57:38;3.90;73.50
71188;DHT22;58893;53.130;8.158;2022-12-11T08:00:04;3.90;73.50
71188;DHT22;58893;53.130;8.158;2022-12-11T08:02:30;3.90;73.50
71188;DHT22;58893;53.130;8.158;2022-12-11T08:04:55;3.90;73.50
71188;DHT22;58893;53.130;8.158;2022-12-11T08:07:21;3.90;73.50
71188;DHT22;58893;53.130;8.158;2022-12-11T08:09:47;3.90;73.70
71188;DHT22;58893;53.130;8.158;2022-12-11T08:12:12;3.90;73.80
71188;DHT22;58893;53.130;8.158;2022-12-11T08:14:38;3.90;73.80
71188;DHT22;58893;53.130;8.158;2022-12-11T08:17:04;3.90;73.80
71188;DHT22;58893;53.130;8.158;2022-12-11T08:19:29;3.80;73.70
71188;DHT22;58893;53.130;8.158;2022-12-11T08:21:55;3.80;73.70
71188;DHT22;58893;53.130;8.158;2022-12-11T08:24:21;3.80;73.80
71188;DHT22;58893;53.130;8.158;2022-12-11T08:26:47;3.80;73.90
71188;DHT22;58893;53.130;8.158;2022-12-11T08:29:13;3.80;73.90
71188;DHT22;58893;53.130;8.158;2022-12-11T08:31:40;3.80;73.90
71188;DHT22;58893;53.130;8.158;2022-12-11T08:34:05;3.80;74.00
71188;DHT22;58893;53.130;8.158;2022-12-11T08:36:31;3.80;74.00
71188;DHT22;58893;53.130;8.158;2022-12-11T08:38:57;3.80;74.60
71188;DHT22;58893;53.130;8.158;2022-12-11T08:41:28;3.90;74.60
71188;DHT22;58893;53.130;8.158;2022-12-11T08:43:56;4.10;74.10
71188;DHT22;58893;53.130;8.158;2022-12-11T08:46:27;4.20;73.70
71188;DHT22;58893;53.130;8.158;2022-12-11T08:48:53;4.20;73.50
71188;DHT22;58893;53.130;8.158;2022-12-11T08:51:21;4.20;73.50
71188;DHT22;58893;53.130;8.158;2022-12-11T08:53:48;4.10;73.40
71188;DHT22;58893;53.130;8.158;2022-12-11T08:56:16;4.10;73.40
71188;DHT22;58893;53.130;8.158;2022-12-11T08:58:43;4.10;73.40
71188;DHT22;58893;53.130;8.158;2022-12-11T09:01:15;4.10;73.50
71188;DHT22;58893;53.130;8.158;2022-12-11T09:03:41;4.00;73.50
71188;DHT22;58893;53.130;8.158;2022-12-11T09:06:09;4.00;73.50
71188;DHT22;58893;53.130;8.158;2022-12-11T09:08:35;4.00;73.50
71188;DHT22;58893;53.130;8.158;2022-12-11T09:11:02;4.00;73.60
71188;DHT22;58893;53.130;8.158;2022-12-11T09:13:28;4.00;73.70
71188;DHT22;58893;53.130;8.158;2022-12-11T09:15:54;4.00;73.60
71188;DHT22;58893;53.130;8.158;2022-12-11T09:18:19;3.90;73.50
71188;DHT22;58893;53.130;8.158;2022-12-11T09:20:45;3.90;73.50
71188;DHT22;58893;53.130;8.158;2022-12-11T09:23:11;3.90;73.60
71188;DHT22;58893;53.130;8.158;2022-12-11T09:25:39;3.90;73.60
71188;DHT22;58893;53.130;8.158;2022-12-11T09:28:04;3.90;73.60
71188;DHT22;58893;53.130;8.158;2022-12-11T09:30:30;3.90;73.60
71188;DHT22;58893;53.130;8.158;2022-12-11T09:32:55;3.90;73.60
71188;DHT22;58893;53.130;8.158;2022-12-11T09:35:21;3.90;73.50
71188;DHT22;58893;53.130;8.158;2022-12-11T09:37:47;3.90;73.40
71188;DHT22;58893;53.130;8.158;2022-12-11T09:40:13;3.90;73.30
71188;DHT22;58893;53.130;8.158;2022-12-11T09:42:53;3.90;73.10
71188;DHT22;58893;53.130;8.158;2022-12-11T09:45:20;3.90;73.60
71188;DHT22;58893;53.130;8.158;2022-12-11T09:47:49;3.90;73.50
71188;DHT22;58893;53.130;8.158;2022-12-11T09:50:34;3.90;72.80
71188;DHT22;58893;53.130;8.158;2022-12-11T09:53:12;3.90;72.90
71188;DHT22;58893;53.130;8.158;2022-12-11T10:07:11;3.90;73.20
71188;DHT22;58893;53.130;8.158;2022-12-11T10:15:16;3.80;72.80
71188;DHT22;58893;53.130;8.158;2022-12-11T10:17:44;3.80;72.90
71188;DHT22;58893;53.130;8.158;2022-12-11T10:22:43;3.90;72.90
71188;DHT22;58893;53.130;8.158;2022-12-11T10:25:26;3.90;72.90
71188;DHT22;58893;53.130;8.158;2022-12-11T10:27:53;3.80;72.80
71188;DHT22;58893;53.130;8.158;2022-12-11T10:30:20;3.80;72.80
71188;DHT22;58893;53.130;8.158;2022-12-11T10:38:19;3.80;72.70
71188;DHT22;58893;53.130;8.158;2022-12-11T10:41:32;3.90;72.70
71188;DHT22;58893;53.130;8.158;2022-12-11T10:43:47;3.80;72.40
71188;DHT22;58893;53.130;8.158;2022-12-11T10:46:22;3.80;72.30
71188;DHT22;58893;53.130;8.158;2022-12-11T10:48:56;3.80;72.40
71188;DHT22;58893;53.130;8.158;2022-12-11T10:51:33;3.80;72.60
71188;DHT22;58893;53.130;8.158;2022-12-11T10:54:15;3.80;72.60
71188;DHT22;58893;53.130;8.158;2022-12-11T10:56:45;3.80;72.60
71188;DHT22;58893;53.130;8.158;2022-12-11T10:59:34;3.80;72.50
71188;DHT22;58893;53.130;8.158;2022-12-11T11:02:01;3.80;72.50
71188;DHT22;58893;53.130;8.158;2022-12-11T11:04:31;3.80;72.40
71188;DHT22;58893;53.130;8.158;2022-12-11T11:07:02;3.80;72.40
71188;DHT22;58893;53.130;8.158;2022-12-11T11:09:34;3.80;72.50
71188;DHT22;58893;53.130;8.158;2022-12-11T11:12:01;3.80;72.50
71188;DHT22;58893;53.130;8.158;2022-12-11T11:14:26;3.80;72.40
71188;DHT22;58893;53.130;8.158;2022-12-11T11:16:55;3.90;72.60
71188;DHT22;58893;53.130;8.158;2022-12-11T11:22:01;3.90;72.50
71188;DHT22;58893;53.130;8.158;2022-12-11T11:24:34;3.80;72.30
71188;DHT22;58893;53.130;8.158;2022-12-11T11:27:01;3.90;72.40
71188;DHT22;58893;53.130;8.158;2022-12-11T11:29:32;3.80;72.30
71188;DHT22;58893;53.130;8.158;2022-12-11T11:32:16;3.90;72.40
71188;DHT22;58893;53.130;8.158;2022-12-11T11:34:43;3.80;72.20
71188;DHT22;58893;53.130;8.158;2022-12-11T11:37:29;3.90;72.20
71188;DHT22;58893;53.130;8.158;2022-12-11T11:40:00;3.80;72.10
71188;DHT22;58893;53.130;8.158;2022-12-11T11:45:27;3.90;72.10
71188;DHT22;58893;53.130;8.158;2022-12-11T11:50:53;3.80;71.70
71188;DHT22;58893;53.130;8.158;2022-12-11T11:53:31;3.80;71.50
71188;DHT22;58893;53.130;8.158;2022-12-11T12:01:27;3.80;71.30
71188;DHT22;58893;53.130;8.158;2022-12-11T12:03:53;3.80;71.40
71188;DHT22;58893;53.130;8.158;2022-12-11T12:06:33;3.90;71.40
71188;DHT22;58893;53.130;8.158;2022-12-11T12:14:44;3.90;71.10
71188;DHT22;58893;53.130;8.158;2022-12-11T12:25:22;3.90;70.60
71188;DHT22;58893;53.130;8.158;2022-12-11T12:28:35;3.90;70.60
71188;DHT22;58893;53.130;8.158;2022-12-11T12:33:46;3.90;70.70
71188;DHT22;58893;53.130;8.158;2022-12-11T12:38:51;3.80;70.80
71188;DHT22;58893;53.130;8.158;2022-12-11T12:44:21;3.80;70.80
71188;DHT22;58893;53.130;8.158;2022-12-11T12:47:03;3.80;70.90
71188;DHT22;58893;53.130;8.158;2022-12-11T12:50:02;3.80;70.90
71188;DHT22;58893;53.130;8.158;2022-12-11T12:55:06;3.80;71.00
71188;DHT22;58893;53.130;8.158;2022-12-11T13:00:54;3.80;71.10
71188;DHT22;58893;53.130;8.158;2022-12-11T13:03:22;3.80;71.10
71188;DHT22;58893;53.130;8.158;2022-12-11T13:06:02;3.80;71.10
71188;DHT22;58893;53.130;8.158;2022-12-11T13:08:46;3.80;71.20
71188;DHT22;58893;53.130;8.158;2022-12-11T13:11:15;3.80;71.30
71188;DHT22;58893;53.130;8.158;2022-12-11T13:13:46;3.80;71.30
71188;DHT22;58893;53.130;8.158;2022-12-11T13:18:42;3.80;71.40
71188;DHT22;58893;53.130;8.158;2022-12-11T13:23:52;3.70;71.20
71188;DHT22;58893;53.130;8.158;2022-12-11T13:26:32;3.70;71.30
71188;DHT22;58893;53.130;8.158;2022-12-11T13:28:58;3.80;71.40
71188;DHT22;58893;53.130;8.158;2022-12-11T13:31:33;3.70;71.40
71188;DHT22;58893;53.130;8.158;2022-12-11T13:34:16;3.70;71.50
71188;DHT22;58893;53.130;8.158;2022-12-11T13:36:48;3.70;71.50
71188;DHT22;58893;53.130;8.158;2022-12-11T13:39:21;3.80;71.80
71188;DHT22;58893;53.130;8.158;2022-12-11T13:41:51;3.70;71.80
71188;DHT22;58893;53.130;8.158;2022-12-11T13:44:27;3.70;71.70
71188;DHT22;58893;53.130;8.158;2022-12-11T13:46:55;3.70;71.90
71188;DHT22;58893;53.130;8.158;2022-12-11T13:49:27;3.70;72.10
71188;DHT22;58893;53.130;8.158;2022-12-11T13:51:57;3.80;72.30
71188;DHT22;58893;53.130;8.158;2022-12-11T13:54:23;3.80;72.30
71188;DHT22;58893;53.130;8.158;2022-12-11T14:01:54;3.80;72.00
71188;DHT22;58893;53.130;8.158;2022-12-11T14:04:21;3.80;72.00
71188;DHT22;58893;53.130;8.158;2022-12-11T14:06:48;3.80;72.00
71188;DHT22;58893;53.130;8.158;2022-12-11T14:09:20;3.80;71.90
71188;DHT22;58893;53.130;8.158;2022-12-11T14:11:46;3.80;71.80
71188;DHT22;58893;53.130;8.158;2022-12-11T14:14:26;3.80;71.70
71188;DHT22;58893;53.130;8.158;2022-12-11T14:16:53;3.80;71.70
71188;DHT22;58893;53.130;8.158;2022-12-11T14:19:21;3.80;71.70
71188;DHT22;58893;53.130;8.158;2022-12-11T14:22:02;3.80;71.70
71188;DHT22;58893;53.130;8.158;2022-12-11T14:24:28;3.80;71.60
71188;DHT22;58893;53.130;8.158;2022-12-11T14:26:56;3.80;71.60
71188;DHT22;58893;53.130;8.158;2022-12-11T14:29:32;3.90;71.50
71188;DHT22;58893;53.130;8.158;2022-12-11T14:32:01;3.80;71.40
71188;DHT22;58893;53.130;8.158;2022-12-11T14:34:35;3.90;71.50
71188;DHT22;58893;53.130;8.158;2022-12-11T14:37:05;3.90;71.40
71188;DHT22;58893;53.130;8.158;2022-12-11T14:39:37;3.80;71.30
71188;DHT22;58893;53.130;8.158;2022-12-11T14:42:12;3.90;71.60
71188;DHT22;58893;53.130;8.158;2022-12-11T14:47:26;3.90;71.90
71188;DHT22;58893;53.130;8.158;2022-12-11T14:52:55;3.90;72.30
71188;DHT22;58893;53.130;8.158;2022-12-11T14:55:24;3.90;71.50
71188;DHT22;58893;53.130;8.158;2022-12-11T14:57:58;3.90;71.50
71188;DHT22;58893;53.130;8.158;2022-12-11T15:00:33;3.90;71.50
71188;DHT22;58893;53.130;8.158;2022-12-11T15:03:03;3.90;71.60
71188;DHT22;58893;53.130;8.158;2022-12-11T15:05:30;3.90;71.70
71188;DHT22;58893;53.130;8.158;2022-12-11T15:07:59;3.90;71.70
71188;DHT22;58893;53.130;8.158;2022-12-11T15:11:11;3.90;71.60
71188;DHT22;58893;53.130;8.158;2022-12-11T15:13:22;3.90;71.50
71188;DHT22;58893;53.130;8.158;2022-12-11T15:15:48;3.90;71.90
71188;DHT22;58893;53.130;8.158;2022-12-11T15:18:25;3.90;71.30
71188;DHT22;58893;53.130;8.158;2022-12-11T15:21:10;3.90;71.30
71188;DHT22;58893;53.130;8.158;2022-12-11T15:26:11;3.90;71.30
71188;DHT22;58893;53.130;8.158;2022-12-11T15:28:37;3.90;71.30
71188;DHT22;58893;53.130;8.158;2022-12-11T15:31:06;3.90;71.00
71188;DHT22;58893;53.130;8.158;2022-12-11T15:33:32;3.90;70.80
71188;DHT22;58893;53.130;8.158;2022-12-11T15:38:47;3.90;70.70
71188;DHT22;58893;53.130;8.158;2022-12-11T15:41:14;3.80;70.60
71188;DHT22;58893;53.130;8.158;2022-12-11T15:43:41;3.80;70.70
71188;DHT22;58893;53.130;8.158;2022-12-11T15:46:08;3.80;70.80
71188;DHT22;58893;53.130;8.158;2022-12-11T15:48:33;3.80;70.80
71188;DHT22;58893;53.130;8.158;2022-12-11T15:50:59;3.80;70.80
71188;DHT22;58893;53.130;8.158;2022-12-11T15:53:24;3.80;70.70
71188;DHT22;58893;53.130;8.158;2022-12-11T15:55:50;3.80;70.60
71188;DHT22;58893;53.130;8.158;2022-12-11T15:58:19;3.80;70.40
71188;DHT22;58893;53.130;8.158;2022-12-11T16:00:45;3.80;70.40
71188;DHT22;58893;53.130;8.158;2022-12-11T16:03:15;3.80;70.30
71188;DHT22;58893;53.130;8.158;2022-12-11T16:05:42;3.80;70.50
71188;DHT22;58893;53.130;8.158;2022-12-11T16:08:16;3.80;70.60
71188;DHT22;58893;53.130;8.158;2022-12-11T16:10:43;3.80;70.60
71188;DHT22;58893;53.130;8.158;2022-12-11T16:13:10;3.80;70.60
71188;DHT22;58893;53.130;8.158;2022-12-11T16:15:38;3.80;70.60
71188;DHT22;58893;53.130;8.158;2022-12-11T16:18:06;3.80;70.50
71188;DHT22;58893;53.130;8.158;2022-12-11T16:20:33;3.80;70.50
71188;DHT22;58893;53.130;8.158;2022-12-11T16:22:59;3.80;70.60
71188;DHT22;58893;53.130;8.158;2022-12-11T16:25:26;3.80;70.60
71188;DHT22;58893;53.130;8.158;2022-12-11T16:28:00;3.80;70.40
71188;DHT22;58893;53.130;8.158;2022-12-11T16:30:27;3.80;70.40
71188;DHT22;58893;53.130;8.158;2022-12-11T16:32:54;3.80;70.30
71188;DHT22;58893;53.130;8.158;2022-12-11T16:35:20;3.80;70.30
71188;DHT22;58893;53.130;8.158;2022-12-11T16:37:50;3.80;70.30
71188;DHT22;58893;53.130;8.158;2022-12-11T16:40:17;3.80;70.20
71188;DHT22;58893;53.130;8.158;2022-12-11T16:42:43;3.80;70.10
71188;DHT22;58893;53.130;8.158;2022-12-11T16:45:15;3.80;70.00
71188;DHT22;58893;53.130;8.158;2022-12-11T16:47:41;3.80;70.00
71188;DHT22;58893;53.130;8.158;2022-12-11T16:50:07;3.80;69.90
71188;DHT22;58893;53.130;8.158;2022-12-11T16:52:33;3.80;69.90
71188;DHT22;58893;53.130;8.158;2022-12-11T16:54:59;3.80;69.80
71188;DHT22;58893;53.130;8.158;2022-12-11T16:57:24;3.80;69.80
71188;DHT22;58893;53.130;8.158;2022-12-11T16:59:50;3.80;69.90
71188;DHT22;58893;53.130;8.158;2022-12-11T17:02:17;3.80;70.00
71188;DHT22;58893;53.130;8.158;2022-12-11T17:04:43;3.80;70.00
71188;DHT22;58893;53.130;8.158;2022-12-11T17:07:09;3.80;70.00
71188;DHT22;58893;53.130;8.158;2022-12-11T17:09:34;3.80;69.80
71188;DHT22;58893;53.130;8.158;2022-12-11T17:12:00;3.80;69.50
71188;DHT22;58893;53.130;8.158;2022-12-11T17:14:26;3.80;69.40
71188;DHT22;58893;53.130;8.158;2022-12-11T17:16:54;3.80;69.50
71188;DHT22;58893;53.130;8.158;2022-12-11T17:19:20;3.80;69.70
71188;DHT22;58893;53.130;8.158;2022-12-11T17:21:46;3.80;69.70
71188;DHT22;58893;53.130;8.158;2022-12-11T17:24:15;3.80;69.80
71188;DHT22;58893;53.130;8.158;2022-12-11T17:26:41;3.70;69.80
71188;DHT22;58893;53.130;8.158;2022-12-11T17:29:07;3.70;69.80
71188;DHT22;58893;53.130;8.158;2022-12-11T17:31:33;3.70;69.80
71188;DHT22;58893;53.130;8.158;2022-12-11T17:33:59;3.70;69.80
71188;DHT22;58893;53.130;8.158;2022-12-11T17:36:26;3.70;69.60
71188;DHT22;58893;53.130;8.158;2022-12-11T17:38:52;3.70;69.70
71188;DHT22;58893;53.130;8.158;2022-12-11T17:41:19;3.70;69.40
71188;DHT22;58893;53.130;8.158;2022-12-11T17:43:45;3.70;69.30
71188;DHT22;58893;53.130;8.158;2022-12-11T17:46:12;3.70;69.30
71188;DHT22;58893;53.130;8.158;2022-12-11T17:48:38;3.80;69.40